Wetterdaten: Woche 14.07.14 - 20.07.14 (KW29)
Datum Zeit Temp. A. Feuchte A. Luftdruck Regen Wind Richtung Sonnenschein ET UV Solar Taupunkt Windchill Windben
14.07.2014 00:00 13,9 C 95 % 1010,2 hPa 0,0 l/m 0,2 km/h (0 Bft) O-SO 0,00 h 0,000 mm 0,0 UV-I 0 W/m 13,1 C 13,9 C 0,6 km/h (0 Bft)
14.07.2014 01:00 13,8 C 96 % 1010,2 hPa 0,0 l/m 0,2 km/h (0 Bft) O-SO 0,00 h 0,000 mm 0,0 UV-I 0 W/m 13,1 C 13,8 C 0,8 km/h (0 Bft)
14.07.2014 02:00 13,5 C 95 % 1010,3 hPa 0,0 l/m 1,7 km/h (1 Bft) O-NO 0,00 h 0,000 mm 0,0 UV-I 0 W/m 12,7 C 13,5 C 3,1 km/h (1 Bft)
14.07.2014 03:00 13,5 C 95 % 1010,3 hPa 0,0 l/m 1,0 km/h (0 Bft) S-SO 0,00 h 0,000 mm 0,0 UV-I 0 W/m 12,6 C 13,5 C 2,7 km/h (1 Bft)
14.07.2014 04:00 13,7 C 95 % 1010,5 hPa 0,0 l/m 2,5 km/h (1 Bft) S 0,00 h 0,000 mm 0,0 UV-I 0 W/m 13,0 C 13,7 C 4,5 km/h (1 Bft)
14.07.2014 05:00 14,1 C 95 % 1010,9 hPa 0,0 l/m 3,4 km/h (1 Bft) S 0,00 h 0,000 mm 0,0 UV-I 7 W/m 13,3 C 14,1 C 5,9 km/h (2 Bft)
14.07.2014 06:00 14,6 C 94 % 1011,0 hPa 0,0 l/m 4,0 km/h (1 Bft) S 0,02 h 0,000 mm 0,0 UV-I 19 W/m 13,7 C 14,5 C 6,2 km/h (2 Bft)
14.07.2014 07:00 15,2 C 94 % 1011,4 hPa 0,0 l/m 5,6 km/h (1 Bft) S 0,87 h 0,025 mm 0,5 UV-I 78 W/m 14,2 C 14,9 C 9,2 km/h (2 Bft)
14.07.2014 08:00 15,5 C 94 % 1012,0 hPa 0,0 l/m 6,8 km/h (2 Bft) W-SW 0,70 h 0,051 mm 0,6 UV-I 80 W/m 14,6 C 15,0 C 11,9 km/h (2 Bft)
14.07.2014 09:00 15,9 C 93 % 1012,4 hPa 0,0 l/m 4,0 km/h (1 Bft) S-SW 1,00 h 0,051 mm 0,8 UV-I 105 W/m 14,8 C 15,9 C 6,7 km/h (2 Bft)
14.07.2014 10:00 17,1 C 89 % 1012,7 hPa 0,0 l/m 6,1 km/h (2 Bft) W-SW 1,00 h 0,051 mm 2,0 UV-I 255 W/m 15,3 C 16,7 C 9,9 km/h (2 Bft)
14.07.2014 11:00 19,0 C 81 % 1012,7 hPa 0,0 l/m 6,0 km/h (2 Bft) S 1,00 h 0,152 mm 4,6 UV-I 530 W/m 15,6 C 18,7 C 9,7 km/h (2 Bft)
14.07.2014 12:00 19,8 C 77 % 1012,8 hPa 0,0 l/m 4,8 km/h (1 Bft) W-SW 1,00 h 0,305 mm 4,3 UV-I 475 W/m 15,5 C 19,7 C 8,2 km/h (2 Bft)
14.07.2014 13:00 19,6 C 79 % 1013,0 hPa 0,2 l/m 7,6 km/h (2 Bft) W-NW 1,00 h 0,305 mm 3,9 UV-I 482 W/m 15,9 C 18,9 C 11,5 km/h (2 Bft)
14.07.2014 14:00 21,9 C 71 % 1012,8 hPa 0,0 l/m 6,6 km/h (2 Bft) NW 1,00 h 0,279 mm 5,3 UV-I 696 W/m 16,4 C 21,5 C 10,2 km/h (2 Bft)
14.07.2014 15:00 18,8 C 84 % 1013,4 hPa 0,4 l/m 5,0 km/h (1 Bft) S-SO 1,00 h 0,406 mm 2,0 UV-I 293 W/m 16,0 C 18,5 C 8,0 km/h (2 Bft)
14.07.2014 16:00 20,4 C 75 % 1013,6 hPa 0,0 l/m 7,5 km/h (2 Bft) W-SW 1,00 h 0,178 mm 2,9 UV-I 429 W/m 15,9 C 19,9 C 11,8 km/h (2 Bft)
14.07.2014 17:00 21,0 C 69 % 1013,6 hPa 0,0 l/m 6,8 km/h (2 Bft) W-SW 1,00 h 0,279 mm 2,2 UV-I 434 W/m 14,9 C 20,6 C 10,3 km/h (2 Bft)
14.07.2014 18:00 20,9 C 68 % 1013,5 hPa 0,0 l/m 6,0 km/h (2 Bft) SW 1,00 h 0,279 mm 1,0 UV-I 102 W/m 14,7 C 20,7 C 9,5 km/h (2 Bft)
14.07.2014 19:00 20,1 C 74 % 1013,9 hPa 0,0 l/m 4,9 km/h (1 Bft) SW 0,15 h 0,102 mm 0,7 UV-I 40 W/m 15,3 C 20,1 C 8,0 km/h (2 Bft)
14.07.2014 20:00 19,1 C 81 % 1014,3 hPa 0,0 l/m 3,0 km/h (1 Bft) S 0,00 h 0,051 mm 0,0 UV-I 17 W/m 15,8 C 19,1 C 5,5 km/h (1 Bft)
14.07.2014 21:00 18,0 C 85 % 1015,2 hPa 0,0 l/m 1,1 km/h (1 Bft) S 0,00 h 0,025 mm 0,0 UV-I 5 W/m 15,4 C 18,0 C 2,6 km/h (1 Bft)
14.07.2014 22:00 16,5 C 89 % 1016,0 hPa 0,0 l/m 0,2 km/h (0 Bft) SO 0,00 h 0,001 mm 0,0 UV-I 0 W/m 14,7 C 16,5 C 1,0 km/h (0 Bft)
14.07.2014 23:00 15,4 C 93 % 1016,6 hPa 0,0 l/m 0,3 km/h (0 Bft) O-SO 0,00 h 0,000 mm 0,0 UV-I 0 W/m 14,2 C 15,4 C 1,5 km/h (1 Bft)
15.07.2014 00:00 14,1 C 94 % 1016,9 hPa 0,0 l/m 0,0 km/h (0 Bft) N 0,00 h 0,000 mm 0,0 UV-I 0 W/m 13,2 C 14,1 C 0,1 km/h (0 Bft)
15.07.2014 01:00 13,1 C 95 % 1017,1 hPa 0,0 l/m 0,1 km/h (0 Bft) O 0,00 h 0,000 mm 0,0 UV-I 0 W/m 12,4 C 13,1 C 0,7 km/h (0 Bft)
15.07.2014 02:00 12,5 C 96 % 1017,4 hPa 0,0 l/m 0,8 km/h (0 Bft) N-NO 0,00 h 0,000 mm 0,0 UV-I 0 W/m 11,9 C 12,5 C 1,9 km/h (1 Bft)
15.07.2014 03:00 11,9 C 96 % 1017,8 hPa 0,0 l/m 0,1 km/h (0 Bft) O 0,00 h 0,000 mm 0,0 UV-I 0 W/m 11,3 C 11,9 C 0,4 km/h (0 Bft)
15.07.2014 04:00 11,5 C 96 % 1018,3 hPa 0,0 l/m 0,0 km/h (0 Bft) N 0,00 h 0,000 mm 0,0 UV-I 0 W/m 10,9 C 11,5 C 0,2 km/h (0 Bft)
15.07.2014 05:00 10,8 C 96 % 1018,6 hPa 0,0 l/m 0,0 km/h (0 Bft) N 0,00 h 0,000 mm 0,0 UV-I 10 W/m 10,2 C 10,8 C 0,0 km/h (0 Bft)
15.07.2014 06:00 11,4 C 97 % 1019,1 hPa 0,0 l/m 0,1 km/h (0 Bft) NO 0,28 h 0,000 mm 0,0 UV-I 37 W/m 10,8 C 11,4 C 0,5 km/h (0 Bft)
15.07.2014 07:00 12,9 C 97 % 1019,3 hPa 0,0 l/m 0,2 km/h (0 Bft) S 1,00 h 0,025 mm 0,7 UV-I 170 W/m 12,4 C 12,9 C 0,7 km/h (0 Bft)
15.07.2014 08:00 15,9 C 91 % 1019,3 hPa 0,0 l/m 1,1 km/h (0 Bft) S 1,00 h 0,076 mm 1,6 UV-I 417 W/m 14,4 C 15,9 C 2,4 km/h (1 Bft)
15.07.2014 09:00 19,7 C 80 % 1019,4 hPa 0,0 l/m 1,8 km/h (1 Bft) W-NW 1,00 h 0,229 mm 3,0 UV-I 580 W/m 16,0 C 19,7 C 3,7 km/h (1 Bft)
15.07.2014 10:00 21,6 C 68 % 1019,4 hPa 0,0 l/m 2,7 km/h (1 Bft) W-SW 1,00 h 0,330 mm 4,5 UV-I 720 W/m 15,4 C 21,6 C 5,1 km/h (1 Bft)
15.07.2014 11:00 22,3 C 62 % 1019,4 hPa 0,0 l/m 2,6 km/h (1 Bft) S 1,00 h 0,432 mm 4,6 UV-I 522 W/m 14,6 C 22,3 C 5,1 km/h (1 Bft)
15.07.2014 12:00 23,0 C 56 % 1019,4 hPa 0,0 l/m 5,9 km/h (2 Bft) S 1,00 h 0,356 mm 4,7 UV-I 565 W/m 13,8 C 22,8 C 9,3 km/h (2 Bft)
15.07.2014 13:00 23,3 C 56 % 1019,3 hPa 0,0 l/m 5,1 km/h (1 Bft) W-SW 1,00 h 0,381 mm 4,4 UV-I 436 W/m 14,0 C 23,2 C 8,6 km/h (2 Bft)
15.07.2014 14:00 24,1 C 54 % 1019,3 hPa 0,0 l/m 7,3 km/h (2 Bft) W-SW 1,00 h 0,330 mm 5,0 UV-I 622 W/m 14,2 C 23,6 C 11,4 km/h (2 Bft)
15.07.2014 15:00 24,4 C 53 % 1019,1 hPa 0,0 l/m 6,3 km/h (2 Bft) W-SW 1,00 h 0,432 mm 4,3 UV-I 570 W/m 14,1 C 24,2 C 9,7 km/h (2 Bft)
15.07.2014 16:00 24,4 C 52 % 1018,8 hPa 0,0 l/m 6,3 km/h (2 Bft) S 1,00 h 0,406 mm 2,8 UV-I 396 W/m 14,0 C 24,2 C 9,8 km/h (2 Bft)
15.07.2014 17:00 24,2 C 52 % 1018,6 hPa 0,0 l/m 5,5 km/h (1 Bft) W-NW 1,00 h 0,305 mm 1,6 UV-I 260 W/m 13,7 C 24,1 C 8,9 km/h (2 Bft)
15.07.2014 18:00 23,6 C 52 % 1018,6 hPa 0,0 l/m 7,4 km/h (2 Bft) W 1,00 h 0,203 mm 0,9 UV-I 100 W/m 13,1 C 23,2 C 11,4 km/h (2 Bft)
15.07.2014 19:00 23,1 C 54 % 1018,7 hPa 0,0 l/m 6,5 km/h (2 Bft) W 0,87 h 0,127 mm 0,6 UV-I 69 W/m 13,3 C 22,9 C 9,7 km/h (2 Bft)
15.07.2014 20:00 22,1 C 57 % 1019,1 hPa 0,0 l/m 2,6 km/h (1 Bft) W-NW 0,00 h 0,102 mm 0,0 UV-I 27 W/m 13,2 C 22,1 C 4,4 km/h (1 Bft)
15.07.2014 21:00 19,7 C 70 % 1019,6 hPa 0,0 l/m 0,0 km/h (0 Bft) N 0,00 h 0,051 mm 0,0 UV-I 6 W/m 14,0 C 19,7 C 0,0 km/h (0 Bft)
15.07.2014 22:00 17,3 C 82 % 1020,0 hPa 0,0 l/m 0,0 km/h (0 Bft) S-SO 0,00 h 0,000 mm 0,0 UV-I 0 W/m 14,2 C 17,3 C 0,5 km/h (0 Bft)
15.07.2014 23:00 15,9 C 87 % 1020,5 hPa 0,0 l/m 0,2 km/h (0 Bft) O 0,00 h 0,025 mm 0,0 UV-I 0 W/m 13,8 C 15,9 C 1,2 km/h (1 Bft)
16.07.2014 00:00 14,9 C 91 % 1020,8 hPa 0,0 l/m 0,0 km/h (0 Bft) O-NO 0,00 h 0,000 mm 0,0 UV-I 0 W/m 13,4 C 14,9 C 0,2 km/h (0 Bft)
16.07.2014 01:00 14,0 C 92 % 1020,7 hPa 0,0 l/m 0,0 km/h (0 Bft) N 0,00 h 0,000 mm 0,0 UV-I 0 W/m 12,8 C 14,0 C 0,1 km/h (0 Bft)
16.07.2014 02:00 13,3 C 93 % 1020,7 hPa 0,0 l/m 0,1 km/h (0 Bft) O-NO 0,00 h 0,000 mm 0,0 UV-I 0 W/m 12,3 C 13,3 C 0,3 km/h (0 Bft)
16.07.2014 03:00 13,2 C 93 % 1020,6 hPa 0,0 l/m 0,1 km/h (0 Bft) NO 0,00 h 0,000 mm 0,0 UV-I 0 W/m 12,2 C 13,2 C 0,4 km/h (0 Bft)
16.07.2014 04:00 12,7 C 94 % 1020,6 hPa 0,0 l/m 0,0 km/h (0 Bft) N 0,00 h 0,000 mm 0,0 UV-I 0 W/m 11,7 C 12,7 C 0,0 km/h (0 Bft)
16.07.2014 05:00 12,1 C 95 % 1020,6 hPa 0,0 l/m 0,0 km/h (0 Bft) N 0,00 h 0,000 mm 0,0 UV-I 10 W/m 11,3 C 12,1 C 0,0 km/h (0 Bft)
16.07.2014 06:00 12,3 C 95 % 1020,6 hPa 0,0 l/m 0,0 km/h (0 Bft) N 0,00 h 0,000 mm 0,0 UV-I 26 W/m 11,5 C 12,3 C 0,2 km/h (0 Bft)
16.07.2014 07:00 14,4 C 90 % 1020,8 hPa 0,0 l/m 0,1 km/h (0 Bft) O 0,55 h 0,025 mm 0,8 UV-I 160 W/m 12,7 C 14,4 C 0,8 km/h (0 Bft)
16.07.2014 08:00 18,0 C 78 % 1020,7 hPa 0,0 l/m 1,1 km/h (0 Bft) W-NW 1,00 h 0,076 mm 1,6 UV-I 418 W/m 14,1 C 18,0 C 2,5 km/h (1 Bft)
16.07.2014 09:00 20,8 C 70 % 1020,7 hPa 0,0 l/m 2,2 km/h (1 Bft) W 1,00 h 0,229 mm 2,9 UV-I 573 W/m 15,0 C 20,8 C 4,2 km/h (1 Bft)
16.07.2014 10:00 23,2 C 61 % 1020,5 hPa 0,0 l/m 3,4 km/h (1 Bft) W 1,00 h 0,356 mm 4,5 UV-I 708 W/m 15,2 C 23,1 C 5,5 km/h (1 Bft)
16.07.2014 11:00 24,3 C 53 % 1020,4 hPa 0,0 l/m 5,1 km/h (1 Bft) N 1,00 h 0,457 mm 5,1 UV-I 665 W/m 14,0 C 24,1 C 8,8 km/h (2 Bft)
16.07.2014 12:00 25,1 C 48 % 1020,1 hPa 0,0 l/m 5,6 km/h (1 Bft) N-NO 1,00 h 0,457 mm 6,8 UV-I 921 W/m 13,4 C 24,9 C 8,7 km/h (2 Bft)
16.07.2014 13:00 26,3 C 46 % 1019,8 hPa 0,0 l/m 7,8 km/h (2 Bft) W-NW 1,00 h 0,610 mm 7,2 UV-I 964 W/m 13,8 C 25,9 C 12,1 km/h (2 Bft)
16.07.2014 14:00 26,8 C 44 % 1019,6 hPa 0,0 l/m 7,5 km/h (2 Bft) W-NW 1,00 h 0,660 mm 6,5 UV-I 899 W/m 13,6 C 26,5 C 11,4 km/h (2 Bft)
16.07.2014 15:00 26,9 C 43 % 1019,5 hPa 0,0 l/m 7,0 km/h (2 Bft) NW 1,00 h 0,635 mm 5,1 UV-I 743 W/m 13,3 C 26,6 C 10,8 km/h (2 Bft)
16.07.2014 16:00 26,6 C 44 % 1019,3 hPa 0,0 l/m 7,0 km/h (2 Bft) NW 1,00 h 0,533 mm 3,4 UV-I 590 W/m 13,2 C 26,3 C 10,7 km/h (2 Bft)
16.07.2014 17:00 25,6 C 45 % 1019,2 hPa 0,0 l/m 6,5 km/h (2 Bft) NW 1,00 h 0,432 mm 1,7 UV-I 297 W/m 12,8 C 25,4 C 9,5 km/h (2 Bft)
16.07.2014 18:00 25,1 C 47 % 1019,1 hPa 0,0 l/m 6,3 km/h (2 Bft) N 1,00 h 0,254 mm 0,9 UV-I 148 W/m 13,1 C 24,9 C 10,0 km/h (2 Bft)
16.07.2014 19:00 24,3 C 51 % 1018,9 hPa 0,0 l/m 7,7 km/h (2 Bft) N 1,00 h 0,152 mm 0,5 UV-I 92 W/m 13,6 C 23,9 C 12,1 km/h (2 Bft)
16.07.2014 20:00 22,6 C 58 % 1019,3 hPa 0,0 l/m 6,0 km/h (2 Bft) N 0,08 h 0,127 mm 0,0 UV-I 27 W/m 14,0 C 22,4 C 9,2 km/h (2 Bft)
16.07.2014 21:00 20,7 C 68 % 1019,9 hPa 0,0 l/m 3,0 km/h (1 Bft) N-NO 0,00 h 0,051 mm 0,0 UV-I 7 W/m 14,6 C 20,7 C 5,3 km/h (1 Bft)
16.07.2014 22:00 19,4 C 75 % 1020,4 hPa 0,0 l/m 0,2 km/h (0 Bft) N-NO 0,00 h 0,025 mm 0,0 UV-I 0 W/m 14,9 C 19,4 C 0,4 km/h (0 Bft)
16.07.2014 23:00 18,9 C 79 % 1020,6 hPa 0,0 l/m 0,0 km/h (0 Bft) N 0,00 h 0,025 mm 0,0 UV-I 0 W/m 15,2 C 18,9 C 0,0 km/h (0 Bft)
17.07.2014 00:00 18,2 C 83 % 1020,7 hPa 0,0 l/m 0,0 km/h (0 Bft) NO 0,00 h 0,025 mm 0,0 UV-I 0 W/m 15,3 C 18,2 C 0,2 km/h (0 Bft)
17.07.2014 01:00 18,1 C 83 % 1020,5 hPa 0,0 l/m 0,3 km/h (0 Bft) N-NW 0,00 h 0,025 mm 0,0 UV-I 0 W/m 15,2 C 18,1 C 1,0 km/h (0 Bft)
17.07.2014 02:00 17,7 C 83 % 1020,2 hPa 0,0 l/m 1,8 km/h (1 Bft) N-NW 0,00 h 0,025 mm 0,0 UV-I 0 W/m 14,8 C 17,7 C 3,4 km/h (1 Bft)
17.07.2014 03:00 16,3 C 88 % 1020,0 hPa 0,0 l/m 1,6 km/h (1 Bft) N 0,00 h 0,025 mm 0,0 UV-I 0 W/m 14,4 C 16,3 C 3,6 km/h (1 Bft)
17.07.2014 04:00 15,3 C 92 % 1020,0 hPa 0,0 l/m 0,7 km/h (0 Bft) O-SO 0,00 h 0,000 mm 0,0 UV-I 0 W/m 14,0 C 15,3 C 1,7 km/h (1 Bft)
17.07.2014 05:00 14,8 C 93 % 1020,1 hPa 0,0 l/m 0,1 km/h (0 Bft) W-NW 0,00 h 0,000 mm 0,0 UV-I 15 W/m 13,6 C 14,8 C 0,5 km/h (0 Bft)
17.07.2014 06:00 14,7 C 94 % 1020,4 hPa 0,0 l/m 0,5 km/h (0 Bft) O 0,42 h 0,000 mm 0,0 UV-I 43 W/m 13,8 C 14,7 C 1,7 km/h (1 Bft)
17.07.2014 07:00 15,5 C 92 % 1020,5 hPa 0,0 l/m 0,9 km/h (0 Bft) O 0,80 h 0,025 mm 0,7 UV-I 79 W/m 14,2 C 15,5 C 2,1 km/h (1 Bft)
17.07.2014 08:00 17,8 C 85 % 1020,6 hPa 0,0 l/m 0,5 km/h (0 Bft) N 1,00 h 0,051 mm 1,3 UV-I 230 W/m 15,3 C 17,8 C 1,7 km/h (1 Bft)
17.07.2014 09:00 20,1 C 78 % 1020,6 hPa 0,0 l/m 1,4 km/h (1 Bft) O-NO 1,00 h 0,127 mm 2,2 UV-I 362 W/m 16,1 C 20,1 C 2,9 km/h (1 Bft)
17.07.2014 10:00 22,7 C 66 % 1020,6 hPa 0,0 l/m 3,5 km/h (1 Bft) N 1,00 h 0,229 mm 3,9 UV-I 657 W/m 16,1 C 22,6 C 6,3 km/h (2 Bft)
17.07.2014 11:00 24,2 C 61 % 1020,4 hPa 0,0 l/m 7,7 km/h (2 Bft) N 1,00 h 0,381 mm 5,5 UV-I 774 W/m 16,1 C 23,8 C 11,3 km/h (2 Bft)
17.07.2014 12:00 24,8 C 58 % 1020,1 hPa 0,0 l/m 4,0 km/h (1 Bft) N-NO 1,00 h 0,508 mm 6,1 UV-I 779 W/m 15,9 C 24,8 C 6,9 km/h (2 Bft)
17.07.2014 13:00 26,5 C 52 % 1019,6 hPa 0,0 l/m 4,3 km/h (1 Bft) N-NO 1,00 h 0,508 mm 6,3 UV-I 936 W/m 15,8 C 26,5 C 7,8 km/h (2 Bft)
17.07.2014 14:00 25,7 C 51 % 1019,2 hPa 0,0 l/m 6,6 km/h (2 Bft) N-NO 1,00 h 0,584 mm 3,6 UV-I 419 W/m 14,8 C 25,3 C 11,0 km/h (2 Bft)
17.07.2014 15:00 26,2 C 52 % 1019,1 hPa 0,0 l/m 6,6 km/h (2 Bft) N 1,00 h 0,305 mm 3,8 UV-I 475 W/m 15,5 C 26,0 C 11,1 km/h (2 Bft)
17.07.2014 16:00 24,9 C 55 % 1019,0 hPa 0,0 l/m 4,8 km/h (1 Bft) O-NO 1,00 h 0,356 mm 1,6 UV-I 187 W/m 15,2 C 24,8 C 9,5 km/h (2 Bft)
17.07.2014 17:00 23,9 C 58 % 1019,1 hPa 0,0 l/m 3,6 km/h (1 Bft) O 1,00 h 0,178 mm 1,2 UV-I 219 W/m 15,0 C 23,8 C 7,0 km/h (2 Bft)
17.07.2014 18:00 24,1 C 57 % 1018,8 hPa 0,0 l/m 2,2 km/h (1 Bft) O-SO 1,00 h 0,152 mm 0,9 UV-I 131 W/m 15,1 C 24,1 C 4,7 km/h (1 Bft)
17.07.2014 19:00 23,6 C 61 % 1019,0 hPa 0,0 l/m 1,8 km/h (1 Bft) O-NO 0,77 h 0,102 mm 0,5 UV-I 60 W/m 15,6 C 23,6 C 4,1 km/h (1 Bft)
17.07.2014 20:00 22,7 C 65 % 1019,1 hPa 0,0 l/m 1,0 km/h (0 Bft) O 0,00 h 0,051 mm 0,0 UV-I 21 W/m 15,8 C 22,7 C 2,9 km/h (1 Bft)
17.07.2014 21:00 20,9 C 73 % 1019,4 hPa 0,0 l/m 0,0 km/h (0 Bft) O 0,00 h 0,025 mm 0,0 UV-I 6 W/m 15,8 C 20,9 C 0,5 km/h (0 Bft)
17.07.2014 22:00 18,5 C 83 % 1019,8 hPa 0,0 l/m 1,0 km/h (0 Bft) O 0,00 h 0,000 mm 0,0 UV-I 0 W/m 15,6 C 18,5 C 2,1 km/h (1 Bft)
17.07.2014 23:00 17,3 C 86 % 1020,0 hPa 0,0 l/m 0,4 km/h (0 Bft) O 0,00 h 0,025 mm 0,0 UV-I 0 W/m 14,9 C 17,3 C 0,8 km/h (0 Bft)
18.07.2014 00:00 16,0 C 91 % 1020,0 hPa 0,0 l/m 0,0 km/h (0 Bft) O 0,00 h 0,025 mm 0,0 UV-I 0 W/m 14,5 C 16,0 C 0,3 km/h (0 Bft)
18.07.2014 01:00 15,0 C 92 % 1019,8 hPa 0,0 l/m 0,2 km/h (0 Bft) O-SO 0,00 h 0,000 mm 0,0 UV-I 0 W/m 13,6 C 15,0 C 0,8 km/h (0 Bft)
18.07.2014 02:00 14,3 C 93 % 1019,9 hPa 0,0 l/m 0,0 km/h (0 Bft) N 0,00 h 0,000 mm 0,0 UV-I 0 W/m 13,1 C 14,3 C 0,1 km/h (0 Bft)
18.07.2014 03:00 13,5 C 94 % 1019,7 hPa 0,0 l/m 0,0 km/h (0 Bft) N 0,00 h 0,000 mm 0,0 UV-I 0 W/m 12,5 C 13,5 C 0,1 km/h (0 Bft)
18.07.2014 04:00 12,9 C 94 % 1019,6 hPa 0,0 l/m 0,1 km/h (0 Bft) N-NW 0,00 h 0,000 mm 0,0 UV-I 0 W/m 11,9 C 12,9 C 0,4 km/h (0 Bft)
18.07.2014 05:00 12,4 C 95 % 1019,7 hPa 0,0 l/m 0,0 km/h (0 Bft) N 0,00 h 0,000 mm 0,0 UV-I 9 W/m 11,6 C 12,4 C 0,2 km/h (0 Bft)
18.07.2014 06:00 12,6 C 94 % 1020,0 hPa 0,0 l/m 0,0 km/h (0 Bft) N-NW 0,00 h 0,000 mm 0,0 UV-I 25 W/m 11,7 C 12,6 C 0,2 km/h (0 Bft)
18.07.2014 07:00 14,8 C 91 % 1020,1 hPa 0,0 l/m 0,1 km/h (0 Bft) N-NW 0,55 h 0,025 mm 0,8 UV-I 154 W/m 13,4 C 14,8 C 0,5 km/h (0 Bft)
18.07.2014 08:00 18,8 C 84 % 1019,9 hPa 0,0 l/m 0,3 km/h (0 Bft) S-SW 1,00 h 0,076 mm 1,5 UV-I 398 W/m 16,0 C 18,8 C 1,4 km/h (1 Bft)
18.07.2014 09:00 22,8 C 71 % 1019,8 hPa 0,0 l/m 1,9 km/h (1 Bft) W-NW 1,00 h 0,229 mm 2,8 UV-I 555 W/m 17,2 C 22,8 C 3,8 km/h (1 Bft)
18.07.2014 10:00 24,6 C 60 % 1019,6 hPa 0,0 l/m 3,0 km/h (1 Bft) SO 1,00 h 0,356 mm 4,2 UV-I 684 W/m 16,2 C 24,6 C 5,8 km/h (2 Bft)
18.07.2014 11:00 26,0 C 53 % 1019,4 hPa 0,0 l/m 3,7 km/h (1 Bft) SO 1,00 h 0,457 mm 5,7 UV-I 820 W/m 15,7 C 26,0 C 6,6 km/h (2 Bft)
18.07.2014 12:00 26,8 C 48 % 1019,2 hPa 0,0 l/m 4,4 km/h (1 Bft) S 1,00 h 0,559 mm 6,7 UV-I 866 W/m 14,7 C 26,7 C 7,6 km/h (2 Bft)
18.07.2014 13:00 27,6 C 44 % 1018,7 hPa 0,0 l/m 3,9 km/h (1 Bft) SO 1,00 h 0,584 mm 6,9 UV-I 861 W/m 14,3 C 27,6 C 7,3 km/h (2 Bft)
18.07.2014 14:00 28,2 C 42 % 1018,1 hPa 0,0 l/m 2,8 km/h (1 Bft) NO 1,00 h 0,584 mm 6,2 UV-I 808 W/m 14,1 C 28,2 C 5,7 km/h (1 Bft)
18.07.2014 15:00 28,1 C 39 % 1017,8 hPa 0,0 l/m 3,0 km/h (1 Bft) O 1,00 h 0,559 mm 4,5 UV-I 580 W/m 12,8 C 28,0 C 6,0 km/h (2 Bft)
18.07.2014 16:00 29,1 C 37 % 1017,4 hPa 0,0 l/m 4,5 km/h (1 Bft) N 1,00 h 0,406 mm 3,5 UV-I 615 W/m 13,0 C 29,1 C 7,9 km/h (2 Bft)
18.07.2014 17:00 28,5 C 36 % 1017,0 hPa 0,0 l/m 4,6 km/h (1 Bft) N 1,00 h 0,457 mm 2,0 UV-I 406 W/m 12,1 C 28,5 C 7,4 km/h (2 Bft)
18.07.2014 18:00 27,3 C 40 % 1016,8 hPa 0,0 l/m 2,6 km/h (1 Bft) N 0,95 h 0,305 mm 0,9 UV-I 71 W/m 12,5 C 27,3 C 4,8 km/h (1 Bft)
18.07.2014 19:00 26,7 C 42 % 1016,7 hPa 0,0 l/m 1,8 km/h (1 Bft) O-NO 0,47 h 0,076 mm 0,5 UV-I 50 W/m 12,9 C 26,7 C 3,8 km/h (1 Bft)
18.07.2014 20:00 25,3 C 49 % 1016,6 hPa 0,0 l/m 0,3 km/h (0 Bft) O-NO 0,00 h 0,051 mm 0,0 UV-I 18 W/m 13,7 C 25,3 C 1,1 km/h (1 Bft)
18.07.2014 21:00 22,3 C 65 % 1016,7 hPa 0,0 l/m 0,3 km/h (0 Bft) O-NO 0,00 h 0,025 mm 0,0 UV-I 5 W/m 15,2 C 22,3 C 1,3 km/h (1 Bft)
18.07.2014 22:00 20,2 C 75 % 1017,0 hPa 0,0 l/m 0,4 km/h (0 Bft) O 0,00 h 0,000 mm 0,0 UV-I 0 W/m 15,6 C 20,2 C 1,3 km/h (1 Bft)
18.07.2014 23:00 19,1 C 74 % 1017,1 hPa 0,0 l/m 0,2 km/h (0 Bft) SO 0,00 h 0,025 mm 0,0 UV-I 0 W/m 14,4 C 19,1 C 1,0 km/h (0 Bft)
19.07.2014 00:00 17,8 C 78 % 1016,9 hPa 0,0 l/m 0,2 km/h (0 Bft) SO 0,00 h 0,025 mm 0,0 UV-I 0 W/m 13,8 C 17,8 C 0,9 km/h (0 Bft)
19.07.2014 01:00 16,7 C 84 % 1016,8 hPa 0,0 l/m 0,1 km/h (0 Bft) O-NO 0,00 h 0,025 mm 0,0 UV-I 0 W/m 13,9 C 16,7 C 0,6 km/h (0 Bft)
19.07.2014 02:00 16,1 C 86 % 1016,8 hPa 0,0 l/m 0,5 km/h (0 Bft) NW 0,00 h 0,025 mm 0,0 UV-I 0 W/m 13,8 C 16,1 C 1,5 km/h (1 Bft)
19.07.2014 03:00 15,5 C 88 % 1016,7 hPa 0,0 l/m 0,3 km/h (0 Bft) NW 0,00 h 0,000 mm 0,0 UV-I 0 W/m 13,6 C 15,5 C 1,1 km/h (1 Bft)
19.07.2014 04:00 14,3 C 91 % 1016,4 hPa 0,0 l/m 0,0 km/h (0 Bft) N 0,00 h 0,000 mm 0,0 UV-I 0 W/m 12,9 C 14,3 C 0,0 km/h (0 Bft)
19.07.2014 05:00 14,1 C 91 % 1016,3 hPa 0,0 l/m 0,6 km/h (0 Bft) NW 0,00 h 0,000 mm 0,0 UV-I 10 W/m 12,7 C 14,1 C 1,6 km/h (1 Bft)
19.07.2014 06:00 14,2 C 92 % 1016,4 hPa 0,0 l/m 0,3 km/h (0 Bft) NW 0,00 h 0,000 mm 0,0 UV-I 25 W/m 12,8 C 14,2 C 0,8 km/h (0 Bft)
19.07.2014 07:00 16,7 C 86 % 1016,3 hPa 0,0 l/m 0,0 km/h (0 Bft) N 0,55 h 0,025 mm 0,8 UV-I 162 W/m 14,4 C 16,7 C 0,0 km/h (0 Bft)
19.07.2014 08:00 21,1 C 76 % 1015,8 hPa 0,0 l/m 0,4 km/h (0 Bft) SW 1,00 h 0,102 mm 1,6 UV-I 402 W/m 16,6 C 21,1 C 1,5 km/h (1 Bft)
19.07.2014 09:00 25,1 C 61 % 1015,6 hPa 0,0 l/m 1,4 km/h (1 Bft) O-SO 1,00 h 0,229 mm 2,8 UV-I 560 W/m 17,0 C 25,1 C 3,2 km/h (1 Bft)
19.07.2014 10:00 27,0 C 49 % 1015,3 hPa 0,0 l/m 5,6 km/h (1 Bft) O-SO 1,00 h 0,356 mm 4,4 UV-I 693 W/m 15,2 C 26,9 C 10,6 km/h (2 Bft)
19.07.2014 11:00 27,9 C 44 % 1015,3 hPa 0,0 l/m 6,6 km/h (2 Bft) O 1,00 h 0,508 mm 5,6 UV-I 782 W/m 14,6 C 27,8 C 12,2 km/h (2 Bft)
19.07.2014 12:00 28,7 C 42 % 1014,9 hPa 0,0 l/m 6,5 km/h (2 Bft) SO 1,00 h 0,559 mm 6,6 UV-I 835 W/m 14,5 C 28,5 C 11,6 km/h (2 Bft)
19.07.2014 13:00 29,4 C 41 % 1014,2 hPa 0,0 l/m 6,0 km/h (2 Bft) SO 1,00 h 0,610 mm 6,8 UV-I 841 W/m 14,7 C 29,4 C 10,6 km/h (2 Bft)
19.07.2014 14:00 30,0 C 38 % 1013,8 hPa 0,0 l/m 6,7 km/h (2 Bft) SO 1,00 h 0,610 mm 6,2 UV-I 806 W/m 14,2 C 29,9 C 11,4 km/h (2 Bft)
19.07.2014 15:00 30,4 C 37 % 1013,5 hPa 0,0 l/m 4,5 km/h (1 Bft) O 1,00 h 0,610 mm 5,0 UV-I 723 W/m 14,0 C 30,3 C 8,5 km/h (2 Bft)
19.07.2014 16:00 30,5 C 37 % 1013,0 hPa 0,0 l/m 4,7 km/h (1 Bft) O-SO 1,00 h 0,533 mm 3,5 UV-I 602 W/m 14,0 C 30,5 C 8,3 km/h (2 Bft)
19.07.2014 17:00 29,9 C 36 % 1012,5 hPa 0,0 l/m 5,9 km/h (2 Bft) SO 1,00 h 0,457 mm 1,9 UV-I 335 W/m 13,1 C 29,8 C 10,0 km/h (2 Bft)
19.07.2014 18:00 29,2 C 38 % 1012,1 hPa 0,0 l/m 4,0 km/h (1 Bft) SO 1,00 h 0,305 mm 0,9 UV-I 69 W/m 13,4 C 29,2 C 7,7 km/h (2 Bft)
19.07.2014 19:00 28,4 C 40 % 1012,0 hPa 0,0 l/m 2,6 km/h (1 Bft) O-SO 0,27 h 0,102 mm 0,6 UV-I 44 W/m 13,5 C 28,4 C 5,2 km/h (1 Bft)
19.07.2014 20:00 26,7 C 46 % 1012,0 hPa 0,0 l/m 0,9 km/h (0 Bft) O 0,00 h 0,076 mm 0,0 UV-I 14 W/m 14,0 C 26,7 C 2,7 km/h (1 Bft)
19.07.2014 21:00 23,8 C 57 % 1012,2 hPa 0,0 l/m 0,4 km/h (0 Bft) O-NO 0,00 h 0,025 mm 0,0 UV-I 0 W/m 14,6 C 23,8 C 1,9 km/h (1 Bft)
19.07.2014 22:00 21,8 C 64 % 1012,1 hPa 0,0 l/m 0,7 km/h (0 Bft) O-NO 0,00 h 0,025 mm 0,0 UV-I 0 W/m 14,6 C 21,8 C 2,0 km/h (1 Bft)
19.07.2014 23:00 20,1 C 72 % 1011,8 hPa 0,0 l/m 2,5 km/h (1 Bft) O-NO 0,00 h 0,025 mm 0,0 UV-I 0 W/m 14,8 C 20,1 C 4,4 km/h (1 Bft)
20.07.2014 00:00 19,2 C 75 % 1011,5 hPa 0,0 l/m 1,6 km/h (1 Bft) O-NO 0,00 h 0,025 mm 0,0 UV-I 0 W/m 14,7 C 19,2 C 3,3 km/h (1 Bft)
20.07.2014 01:00 18,6 C 78 % 1011,7 hPa 0,0 l/m 0,3 km/h (0 Bft) N 0,00 h 0,025 mm 0,0 UV-I 0 W/m 14,6 C 18,6 C 1,0 km/h (0 Bft)
20.07.2014 02:00 17,1 C 83 % 1011,1 hPa 0,0 l/m 1,9 km/h (1 Bft) O-NO 0,00 h 0,025 mm 0,0 UV-I 0 W/m 14,2 C 17,1 C 4,4 km/h (1 Bft)
20.07.2014 03:00 16,9 C 85 % 1010,8 hPa 0,0 l/m 0,5 km/h (0 Bft) W-NW 0,00 h 0,025 mm 0,0 UV-I 0 W/m 14,3 C 16,9 C 1,9 km/h (1 Bft)
20.07.2014 04:00 16,0 C 88 % 1010,7 hPa 0,0 l/m 0,6 km/h (0 Bft) N-NW 0,00 h 0,025 mm 0,0 UV-I 0 W/m 14,0 C 16,0 C 1,3 km/h (1 Bft)
20.07.2014 05:00 15,2 C 90 % 1010,5 hPa 0,0 l/m 0,5 km/h (0 Bft) W-NW 0,00 h 0,000 mm 0,0 UV-I 8 W/m 13,6 C 15,2 C 1,2 km/h (1 Bft)
20.07.2014 06:00 15,4 C 91 % 1010,3 hPa 0,0 l/m 0,1 km/h (0 Bft) N-NW 0,25 h 0,000 mm 0,0 UV-I 33 W/m 13,8 C 15,4 C 0,7 km/h (0 Bft)
20.07.2014 07:00 19,4 C 79 % 1009,9 hPa 0,0 l/m 1,8 km/h (1 Bft) O-NO 1,00 h 0,025 mm 0,8 UV-I 200 W/m 15,7 C 19,4 C 4,0 km/h (1 Bft)
20.07.2014 08:00 22,9 C 68 % 1009,8 hPa 0,0 l/m 2,3 km/h (1 Bft) O 1,00 h 0,127 mm 1,2 UV-I 222 W/m 16,6 C 22,9 C 4,9 km/h (1 Bft)
20.07.2014 09:00 24,5 C 63 % 1009,9 hPa 0,0 l/m 3,2 km/h (1 Bft) O-SO 1,00 h 0,152 mm 2,7 UV-I 493 W/m 17,0 C 24,5 C 6,4 km/h (2 Bft)
20.07.2014 10:00 27,0 C 57 % 1009,6 hPa 0,0 l/m 3,5 km/h (1 Bft) O-NO 1,00 h 0,330 mm 4,4 UV-I 679 W/m 17,7 C 27,0 C 6,7 km/h (2 Bft)
20.07.2014 11:00 28,7 C 50 % 1009,3 hPa 0,0 l/m 2,7 km/h (1 Bft) SO 1,00 h 0,457 mm 5,7 UV-I 777 W/m 17,1 C 28,7 C 5,7 km/h (1 Bft)
20.07.2014 12:00 30,2 C 41 % 1009,1 hPa 0,0 l/m 3,1 km/h (1 Bft) O-NO 1,00 h 0,533 mm 6,6 UV-I 834 W/m 15,5 C 30,2 C 5,7 km/h (1 Bft)
20.07.2014 13:00 30,3 C 39 % 1008,8 hPa 0,0 l/m 4,4 km/h (1 Bft) SO 1,00 h 0,584 mm 5,4 UV-I 658 W/m 14,5 C 30,2 C 8,0 km/h (2 Bft)
20.07.2014 14:00 30,9 C 38 % 1008,5 hPa 0,0 l/m 3,8 km/h (1 Bft) N-NO 1,00 h 0,483 mm 5,4 UV-I 703 W/m 14,8 C 30,9 C 6,6 km/h (2 Bft)
20.07.2014 15:00 31,3 C 37 % 1008,2 hPa 0,0 l/m 3,0 km/h (1 Bft) NO 1,00 h 0,508 mm 4,5 UV-I 625 W/m 14,7 C 31,2 C 6,0 km/h (2 Bft)
20.07.2014 16:00 31,1 C 37 % 1007,8 hPa 0,0 l/m 2,6 km/h (1 Bft) N-NO 1,00 h 0,457 mm 3,1 UV-I 496 W/m 14,5 C 31,1 C 5,2 km/h (1 Bft)
20.07.2014 17:00 30,1 C 39 % 1007,4 hPa 0,0 l/m 2,6 km/h (1 Bft) O-SO 1,00 h 0,381 mm 1,6 UV-I 268 W/m 14,5 C 30,1 C 5,0 km/h (1 Bft)
20.07.2014 18:00 29,5 C 41 % 1006,9 hPa 0,0 l/m 1,7 km/h (1 Bft) O-SO 1,00 h 0,229 mm 0,8 UV-I 172 W/m 14,9 C 29,5 C 3,8 km/h (1 Bft)
20.07.2014 19:00 28,4 C 45 % 1007,0 hPa 0,0 l/m 1,0 km/h (0 Bft) O 0,57 h 0,152 mm 0,5 UV-I 59 W/m 15,4 C 28,4 C 2,6 km/h (1 Bft)
20.07.2014 20:00 26,7 C 55 % 1007,0 hPa 0,0 l/m 0,7 km/h (0 Bft) O 0,00 h 0,051 mm 0,0 UV-I 17 W/m 17,0 C 26,7 C 2,0 km/h (1 Bft)
20.07.2014 21:00 25,2 C 58 % 1007,1 hPa 0,0 l/m 3,3 km/h (1 Bft) SW 0,00 h 0,025 mm 0,0 UV-I 0 W/m 16,2 C 25,1 C 5,8 km/h (2 Bft)
20.07.2014 22:00 23,6 C 61 % 1007,1 hPa 0,0 l/m 1,9 km/h (1 Bft) SO 0,00 h 0,025 mm 0,0 UV-I 0 W/m 15,6 C 23,6 C 3,6 km/h (1 Bft)
20.07.2014 23:00 22,7 C 65 % 1006,8 hPa 0,0 l/m 0,5 km/h (0 Bft) SO 0,00 h 0,051 mm 0,0 UV-I 0 W/m 15,8 C 22,7 C 1,8 km/h (1 Bft)
Min-Datum _ 15.07.14 18.07.14 20.07.14 - 14.07.14 - - - - - 18.07.14 15.07.14 14.07.14
_ Min-Zeit 03:44 16:28 18:40 - 00:00 - - - - - 17:51 02:23 00:00
Minimum _ 0,0 C 31 % 1006,6 hPa - 0,0 km/h (0 Bft) - - - - - 9,4 C 10,6 C 0,0 km/h (0 Bft)
Max-Datum _ 20.07.14 15.07.14 16.07.14 14.07.14 17.07.14 - 15.07.14 16.07.14 14.07.14 14.07.14 20.07.14 20.07.14 14.07.14
_ Max-Zeit 14:58 02:28 07:35 15:10 14:41 - 16:18 14:00 12:37 12:48 10:32 14:58 08:18
Maximum _ 32,2 C 97 % 1020,9 hPa 0,4 l/m 16,1 km/h
N-NO (3 Bft)
- 0,07 h 0,660 mm 8,5 UV-I 1215 W/m 19,3 C 32,2 C 22,5 km/h
W-SW (4 Bft)
Durchschnitt _ 20,7 C 70 % 1016,2 hPa #0,6 l/m 2,6 km/h (1 Bft) O #87:06 h #29,887 mm 3,2 UV-I 361 W/m 14,3 C 20,6 C 4,7 km/h (1 Bft)